Time;durP1;ratioP1;P1;durP2;ratioP2;P2;SDS_P1;SDS_P2;PMS_P1;PMS_P2;Temp;Humidity;BMP_temperature;BMP_pressure;BME280_temperature;BME280_humidity;BME280_pressure;Samples;Min_cycle;Max_cycle;Signal;HPM_P1;HPM_P2
2023/11/08 00:01:00;;;;;;;1.80;1.17;;;8.70;1.00;;;;;;5007357;28;20185;-73
2023/11/08 00:03:26;;;;;;;3.43;1.43;;;8.70;1.00;;;;;;5026173;28;20415;-73
2023/11/08 00:05:53;;;;;;;7.10;1.30;;;8.70;1.00;;;;;;5033122;28;20421;-73
2023/11/08 00:08:20;;;;;;;6.37;1.40;;;;;;;;;;5033206;28;20491;-74
2023/11/08 00:20:51;;;;;;;5.50;1.10;;;8.70;1.00;;;;;;5032240;28;20430;-84
2023/11/08 00:30:03;;;;;;;7.33;2.00;;;8.80;1.00;;;;;;5013982;28;20918;-84
2023/11/08 00:32:47;;;;;;;1.90;1.43;;;8.90;1.00;;;;;;5013980;28;20414;-83
2023/11/08 00:45:25;;;;;;;12.30;1.60;;;8.80;1.00;;;;;;5016720;28;20398;-83
2023/11/08 00:47:53;;;;;;;7.60;1.67;;;8.60;1.00;;;;;;5017127;28;20420;-83
2023/11/08 00:51:01;;;;;;;6.00;1.37;;;8.60;1.00;;;;;;5026270;28;20339;-84
2023/11/08 00:57:06;;;;;;;4.00;1.10;;;;;;;;;;5016596;28;20415;-83
2023/11/08 01:02:55;;;;;;;4.13;1.00;;;;;;;;;;5023537;28;20404;-83
2023/11/08 01:08:42;;;;;;;3.63;1.23;;;;;;;;;;5027732;28;20406;-83
2023/11/08 01:11:08;;;;;;;7.97;1.27;;;8.60;1.00;;;;;;5015447;28;20407;-74
2023/11/08 01:13:36;;;;;;;3.33;1.50;;;;;;;;;;5015089;28;20432;-74
2023/11/08 01:16:05;;;;;;;8.63;1.43;;;;;;;;;;5020172;28;20648;-73
2023/11/08 01:18:32;;;;;;;5.07;1.30;;;8.40;1.00;;;;;;5019955;28;20411;-73
2023/11/08 01:20:59;;;;;;;6.57;1.80;;;;;;;;;;5020582;28;20457;-74
2023/11/08 01:23:27;;;;;;;5.80;1.80;;;;;;;;;;5023093;28;20530;-74
2023/11/08 01:25:53;;;;;;;1.87;1.30;;;8.50;1.00;;;;;;5015372;28;20452;-73
2023/11/08 01:28:19;;;;;;;3.83;1.50;;;;;;;;;;5026138;28;20510;-73
2023/11/08 01:30:46;;;;;;;2.40;1.10;;;8.50;1.00;;;;;;5015454;28;20471;-74
2023/11/08 01:33:12;;;;;;;5.57;1.30;;;;;;;;;;5013969;28;20769;-73
2023/11/08 01:35:38;;;;;;;6.73;1.73;;;8.60;1.00;;;;;;5021820;28;20431;-74
2023/11/08 01:38:04;;;;;;;7.57;1.57;;;8.60;1.00;;;;;;5031444;28;20435;-74
2023/11/08 01:40:29;;;;;;;5.23;1.73;;;8.60;1.00;;;;;;5023682;28;20264;-74
2023/11/08 01:42:55;;;;;;;3.10;1.30;;;8.60;1.00;;;;;;5016264;28;20223;-74
2023/11/08 01:45:21;;;;;;;2.83;1.40;;;;;;;;;;5032053;28;20222;-73
2023/11/08 01:47:48;;;;;;;4.63;1.53;;;8.80;1.00;;;;;;5013852;28;20592;-74
2023/11/08 01:50:15;;;;;;;14.87;1.97;;;8.70;1.00;;;;;;5018007;28;20551;-73
2023/11/08 01:53:17;;;;;;;6.57;1.60;;;8.70;1.00;;;;;;5016353;28;20519;-74
2023/11/08 01:55:43;;;;;;;5.00;1.17;;;;;;;;;;5015458;28;20424;-74
2023/11/08 01:58:09;;;;;;;9.70;2.43;;;8.80;1.00;;;;;;5026337;28;20400;-74
2023/11/08 02:00:37;;;;;;;3.90;1.30;;;8.80;1.00;;;;;;5017103;28;21000;-74
2023/11/08 02:03:03;;;;;;;4.93;1.37;;;8.80;1.00;;;;;;5018706;28;20217;-74
2023/11/08 02:05:29;;;;;;;6.33;1.60;;;;;;;;;;5020256;28;20455;-74
2023/11/08 02:07:59;;;;;;;3.63;1.80;;;8.90;1.00;;;;;;5031305;28;20419;-73
2023/11/08 02:10:25;;;;;;;3.03;1.30;;;9.00;1.00;;;;;;5014522;28;20458;-74
2023/11/08 02:19:49;;;;;;;3.60;1.10;;;8.90;1.00;;;;;;4995475;28;20380;-84
2023/11/08 02:26:16;;;;;;;2.90;1.43;;;8.80;1.00;;;;;;5017252;28;20946;-83
2023/11/08 02:28:43;;;;;;;4.70;1.40;;;8.80;1.00;;;;;;5026437;28;20413;-73
2023/11/08 02:31:09;;;;;;;2.10;1.53;;;;;;;;;;5016335;28;20840;-73
2023/11/08 02:33:35;;;;;;;8.13;1.53;;;8.90;1.00;;;;;;5012426;28;20408;-73
2023/11/08 02:36:01;;;;;;;7.83;1.40;;;8.80;1.00;;;;;;5007070;28;20428;-73
2023/11/08 02:38:27;;;;;;;5.53;3.43;;;8.80;1.00;;;;;;5013819;28;20903;-73
2023/11/08 02:40:53;;;;;;;9.20;1.70;;;8.90;1.00;;;;;;5012742;28;20752;-73
2023/11/08 02:43:41;;;;;;;16.13;1.93;;;8.90;1.00;;;;;;5018488;28;20467;-83
2023/11/08 02:46:59;;;;;;;11.50;2.43;;;8.90;1.00;;;;;;5014426;28;20181;-83
2023/11/08 02:56:38;;;;;;;4.20;1.50;;;8.90;1.00;;;;;;5011061;28;20478;-83
2023/11/08 02:59:17;;;;;;;8.57;1.77;;;8.90;1.00;;;;;;5012452;28;20945;-73
2023/11/08 03:01:44;;;;;;;2.73;1.50;;;8.90;1.00;;;;;;5022559;28;20779;-74
2023/11/08 03:04:11;;;;;;;6.60;2.20;;;9.00;1.00;;;;;;5016297;28;20509;-73
2023/11/08 03:06:37;;;;;;;7.10;1.23;;;;;;;;;;5013505;28;20574;-73
2023/11/08 03:09:06;;;;;;;3.77;1.70;;;9.10;1.00;;;;;;5018694;28;21084;-74
2023/11/08 03:11:32;;;;;;;6.87;1.53;;;;;;;;;;5022930;28;20435;-74
2023/11/08 03:14:16;;;;;;;5.37;1.50;;;9.10;1.00;;;;;;5007928;28;20478;-83
2023/11/08 03:17:11;;;;;;;3.70;1.47;;;9.20;1.00;;;;;;5013548;28;20452;-83
2023/11/08 03:19:37;;;;;;;7.33;1.63;;;;;;;;;;5020414;28;20443;-83
2023/11/08 03:22:05;;;;;;;4.87;1.03;;;9.30;1.00;;;;;;5017201;28;20465;-83
2023/11/08 03:34:38;;;;;;;5.87;1.40;;;9.20;1.00;;;;;;5018113;28;20410;-83
2023/11/08 03:37:16;;;;;;;8.73;1.10;;;9.20;1.00;;;;;;5022180;28;20411;-83
2023/11/08 03:43:04;;;;;;;2.33;1.30;;;9.10;1.00;;;;;;5023183;28;20430;-74
2023/11/08 03:45:30;;;;;;;3.50;1.50;;;9.00;1.00;;;;;;5021438;28;20436;-74
2023/11/08 03:47:56;;;;;;;3.33;1.77;;;9.10;1.00;;;;;;5030000;28;20181;-74
2023/11/08 03:50:21;;;;;;;2.70;1.10;;;9.20;1.00;;;;;;5022131;28;20571;-73
2023/11/08 03:52:47;;;;;;;1.30;1.20;;;9.20;1.00;;;;;;5015629;28;20630;-74
2023/11/08 03:55:13;;;;;;;5.13;1.30;;;;;;;;;;5023691;28;20176;-73
2023/11/08 03:57:40;;;;;;;3.63;1.23;;;9.00;1.00;;;;;;5030986;28;20753;-83
2023/11/08 04:00:18;;;;;;;3.57;1.67;;;9.00;1.00;;;;;;5002245;28;20436;-84
2023/11/08 04:06:06;;;;;;;7.80;1.63;;;9.00;1.00;;;;;;5033675;28;20492;-83
2023/11/08 04:09:10;;;;;;;2.60;1.30;;;8.90;1.00;;;;;;5022035;28;20938;-83
2023/11/08 04:11:36;;;;;;;3.93;1.33;;;8.90;1.00;;;;;;5027731;28;20237;-83
2023/11/08 04:14:02;;;;;;;4.30;1.57;;;8.90;1.00;;;;;;5024454;28;20423;-73
2023/11/08 04:16:39;;;;;;;3.17;1.30;;;8.90;1.00;;;;;;5016511;28;20511;-73
2023/11/08 04:19:08;;;;;;;2.20;1.00;;;8.90;1.00;;;;;;5026427;28;20173;-73
2023/11/08 04:21:34;;;;;;;3.63;1.03;;;;;;;;;;5018116;28;20420;-73
2023/11/08 04:24:01;;;;;;;4.00;1.60;;;8.90;1.00;;;;;;5016425;28;20454;-73
2023/11/08 04:26:27;;;;;;;2.63;1.50;;;8.90;1.00;;;;;;5014239;28;20424;-74
2023/11/08 04:32:14;;;;;;;8.10;1.40;;;9.10;1.00;;;;;;5017526;28;20189;-83
2023/11/08 04:35:22;;;;;;;8.77;0.93;;;9.00;1.00;;;;;;5022650;28;20498;-83
2023/11/08 04:38:00;;;;;;;2.47;1.07;;;9.00;1.00;;;;;;5009795;28;20191;-83
2023/11/08 04:40:59;;;;;;;2.50;1.43;;;8.90;1.00;;;;;;5031671;28;20484;-83
2023/11/08 04:43:24;;;;;;;4.47;1.03;;;8.90;1.00;;;;;;5022927;28;20439;-74
2023/11/08 04:45:59;;;;;;;6.77;1.73;;;9.00;1.00;;;;;;5015614;28;20427;-74
2023/11/08 04:48:29;;;;;;;1.83;1.27;;;8.90;1.00;;;;;;5016462;28;20180;-73
2023/11/08 04:50:59;;;;;;;2.00;1.10;;;8.80;1.00;;;;;;5017809;28;21024;-74
2023/11/08 04:53:25;;;;;;;2.53;1.53;;;8.80;1.00;;;;;;5018521;28;20427;-73
2023/11/08 04:55:51;;;;;;;1.13;1.10;;;;;;;;;;5018436;28;20424;-73
2023/11/08 04:58:17;;;;;;;2.83;0.90;;;;;;;;;;5021686;28;20181;-74
2023/11/08 05:00:47;;;;;;;3.30;1.60;;;8.80;1.00;;;;;;5009681;28;20522;-74
2023/11/08 05:03:13;;;;;;;9.47;1.73;;;8.80;1.00;;;;;;5026605;28;20460;-73
2023/11/08 05:05:39;;;;;;;5.17;1.63;;;;;;;;;;5020086;28;20442;-73
2023/11/08 05:08:05;;;;;;;3.67;1.63;;;8.80;1.00;;;;;;5032398;28;20553;-73
2023/11/08 05:10:35;;;;;;;1.30;1.20;;;8.70;1.00;;;;;;5015586;28;20467;-73
2023/11/08 05:13:05;;;;;;;2.73;1.30;;;8.70;1.00;;;;;;5023973;28;20502;-73
2023/11/08 05:15:32;;;;;;;2.03;1.30;;;;;;;;;;5026820;28;21100;-77
2023/11/08 05:18:00;;;;;;;5.87;2.03;;;8.60;1.00;;;;;;5021521;28;20906;-74
2023/11/08 05:20:26;;;;;;;1.30;1.20;;;;;;;;;;5018006;28;20526;-73
2023/11/08 05:22:55;;;;;;;2.90;1.67;;;8.60;1.00;;;;;;5013572;28;20908;-73
2023/11/08 05:25:39;;;;;;;5.60;1.80;;;8.50;1.00;;;;;;5003844;28;20503;-88
2023/11/08 05:34:59;;;;;;;4.40;1.73;;;8.40;1.00;;;;;;5016653;28;20411;-87
2023/11/08 05:38:12;;;;;;;1.90;1.50;;;8.30;1.00;;;;;;5014363;28;20434;-83
2023/11/08 05:41:17;;;;;;;3.43;1.47;;;8.30;1.00;;;;;;5015814;28;20463;-83
2023/11/08 05:47:04;;;;;;;2.77;1.90;;;8.30;1.00;;;;;;5002416;28;20890;-81
2023/11/08 05:52:53;;;;;;;7.20;1.80;;;8.30;1.00;;;;;;5028555;28;20239;-81
2023/11/08 05:58:41;;;;;;;2.43;1.90;;;8.40;1.00;;;;;;5029075;28;20467;-72
2023/11/08 06:01:07;;;;;;;2.10;1.93;;;8.40;1.00;;;;;;5025679;28;20428;-72
2023/11/08 06:03:33;;;;;;;7.87;2.33;;;;;;;;;;5017192;28;20238;-72
2023/11/08 06:06:05;;;;;;;2.30;1.93;;;8.30;1.00;;;;;;5019921;28;20916;-72
2023/11/08 06:08:31;;;;;;;3.60;2.03;;;8.30;1.00;;;;;;5013620;28;20432;-72
2023/11/08 06:10:57;;;;;;;11.23;2.83;;;;;;;;;;5021987;28;20485;-72
2023/11/08 06:13:23;;;;;;;7.10;2.60;;;8.30;1.00;;;;;;5014095;28;20208;-72
2023/11/08 06:19:10;;;;;;;11.03;2.33;;;;;;;;;;5023704;28;20219;-81
2023/11/08 06:21:50;;;;;;;9.23;2.00;;;8.20;1.00;;;;;;5014697;28;20443;-81
2023/11/08 06:25:05;;;;;;;3.97;1.80;;;8.20;1.00;;;;;;5014841;28;20435;-82
2023/11/08 06:30:53;;;;;;;3.37;2.47;;;8.30;1.00;;;;;;5011014;28;20472;-81
2023/11/08 06:36:41;;;;;;;7.10;1.90;;;8.50;1.00;;;;;;4994904;28;20372;-82
2023/11/08 06:42:28;;;;;;;10.83;2.60;;;8.60;1.00;;;;;;5015067;28;20188;-81
2023/11/08 06:51:38;;;;;;;6.20;2.20;;;8.70;1.00;;;;;;5015500;28;20961;-82
2023/11/08 06:54:59;;;;;;;4.00;2.20;;;8.70;1.00;;;;;;5014521;28;20387;-82
2023/11/08 06:57:53;;;;;;;1.90;1.77;;;8.80;1.00;;;;;;5022769;28;20644;-81
2023/11/08 07:00:18;;;;;;;3.73;2.00;;;8.90;1.00;;;;;;5013306;28;20420;-72
2023/11/08 07:02:44;;;;;;;5.10;2.10;;;9.00;1.00;;;;;;5017549;28;20495;-72
2023/11/08 07:05:12;;;;;;;8.13;2.53;;;9.00;1.00;;;;;;5014948;28;20423;-72
2023/11/08 07:07:39;;;;;;;7.47;1.80;;;9.10;1.00;;;;;;5016365;28;20428;-73
2023/11/08 07:10:09;;;;;;;5.63;2.10;;;9.10;1.00;;;;;;5025677;28;20467;-72
2023/11/08 07:12:35;;;;;;;5.17;2.20;;;9.20;1.00;;;;;;5024236;28;20789;-72
2023/11/08 07:15:23;;;;;;;8.83;2.10;;;9.20;1.00;;;;;;5014330;28;20427;-82
2023/11/08 07:24:36;;;;;;;9.43;2.20;;;9.40;1.00;;;;;;5008912;28;20478;-82
2023/11/08 07:30:23;;;;;;;9.73;2.00;;;9.30;1.00;;;;;;4999075;28;21006;-72
2023/11/08 07:32:53;;;;;;;1.90;1.73;;;9.50;1.00;;;;;;5013555;28;20467;-73
2023/11/08 07:35:23;;;;;;;4.53;2.10;;;9.40;1.00;;;;;;5010485;28;20177;-72
2023/11/08 07:37:49;;;;;;;2.83;1.50;;;9.50;1.00;;;;;;5012265;28;20902;-72
2023/11/08 07:40:15;;;;;;;4.20;2.13;;;9.40;1.00;;;;;;5010543;28;20440;-73
2023/11/08 07:42:41;;;;;;;3.23;1.50;;;9.50;1.00;;;;;;5013300;28;20170;-72
2023/11/08 07:45:08;;;;;;;3.50;1.87;;;9.50;1.00;;;;;;5018341;28;20423;-81
2023/11/08 07:47:33;;;;;;;1.40;1.30;;;9.50;1.00;;;;;;5015784;28;20490;-82
2023/11/08 07:54:17;;;;;;;5.53;1.43;;;9.50;1.00;;;;;;5025866;28;20470;-82
2023/11/08 07:56:47;;;;;;;5.57;1.60;;;9.50;1.00;;;;;;5011732;28;20417;-81
2023/11/08 07:59:29;;;;;;;7.70;1.60;;;9.50;1.00;;;;;;5013071;28;20432;-81
2023/11/08 08:02:41;;;;;;;11.13;1.80;;;9.60;1.00;;;;;;5015966;28;20436;-80
2023/11/08 08:05:47;;;;;;;12.43;1.80;;;9.60;1.00;;;;;;5007110;28;20472;-81
2023/11/08 08:14:56;;;;;;;2.97;1.53;;;9.60;1.00;;;;;;5017333;28;20407;-73
2023/11/08 08:17:22;;;;;;;4.70;1.77;;;;;;;;;;5022848;28;20431;-72
2023/11/08 08:19:48;;;;;;;2.97;1.50;;;9.80;1.00;;;;;;5025017;28;20504;-71
2023/11/08 08:22:14;;;;;;;3.80;1.53;;;9.90;1.00;;;;;;5031562;28;20435;-72
2023/11/08 08:24:40;;;;;;;7.57;1.90;;;10.10;1.00;;;;;;5019694;28;20181;-72
2023/11/08 08:27:06;;;;;;;5.87;1.73;;;10.10;1.00;;;;;;5018126;28;20522;-72
2023/11/08 08:29:35;;;;;;;7.00;1.70;;;10.20;1.00;;;;;;5033993;28;20588;-72
2023/11/08 08:32:01;;;;;;;5.37;1.80;;;;;;;;;;5014372;28;20180;-81
2023/11/08 08:34:41;;;;;;;3.40;1.40;;;10.40;1.00;;;;;;5007169;28;20505;-80
2023/11/08 08:37:11;;;;;;;2.30;1.57;;;10.50;1.00;;;;;;5000242;28;20439;-81
2023/11/08 08:43:11;;;;;;;3.67;1.70;;;10.90;1.00;;;;;;5013208;28;20469;-81
2023/11/08 08:45:37;;;;;;;3.47;1.30;;;10.80;1.00;;;;;;5019937;28;21014;-72
2023/11/08 08:48:04;;;;;;;1.73;1.30;;;10.80;1.00;;;;;;5015278;28;20522;-73
2023/11/08 08:50:30;;;;;;;1.90;1.40;;;10.80;1.00;;;;;;5021563;28;20193;-72
2023/11/08 08:52:56;;;;;;;4.80;1.40;;;;;;;;;;5016667;28;20442;-73
2023/11/08 08:55:21;;;;;;;2.53;1.90;;;11.00;1.00;;;;;;5016456;28;20195;-73
2023/11/08 08:57:48;;;;;;;6.50;1.73;;;11.00;1.00;;;;;;5014242;28;20463;-73
2023/11/08 09:00:22;;;;;;;3.90;1.60;;;10.90;1.00;;;;;;5029138;28;20219;-72
2023/11/08 09:02:49;;;;;;;8.00;1.93;;;11.20;1.00;;;;;;5017070;28;20458;-73
2023/11/08 09:05:18;;;;;;;2.17;1.37;;;11.10;1.00;;;;;;5016115;28;20459;-73
2023/11/08 09:07:44;;;;;;;7.43;1.70;;;11.30;1.00;;;;;;5023766;28;20773;-73
2023/11/08 09:10:10;;;;;;;3.23;1.40;;;11.30;1.00;;;;;;5013918;28;20558;-72
2023/11/08 09:12:37;;;;;;;11.30;1.60;;;11.20;1.00;;;;;;5015796;28;20531;-73
2023/11/08 09:15:04;;;;;;;3.53;1.07;;;11.10;1.00;;;;;;5013143;28;20426;-73
2023/11/08 09:17:31;;;;;;;6.40;1.63;;;11.10;1.00;;;;;;5018516;28;20454;-81
2023/11/08 09:23:41;;;;;;;1.53;1.10;;;10.90;1.00;;;;;;5013550;28;21019;-80
2023/11/08 09:26:09;;;;;;;1.20;1.00;;;11.00;1.00;;;;;;5021616;28;21107;-82
2023/11/08 09:28:47;;;;;;;7.13;1.67;;;10.90;1.00;;;;;;5013952;28;20436;-81
2023/11/08 09:31:15;;;;;;;3.03;1.10;;;10.90;1.00;;;;;;5005140;28;20442;-73
2023/11/08 09:33:41;;;;;;;12.23;1.50;;;10.90;1.00;;;;;;5009021;28;20787;-73
2023/11/08 09:36:07;;;;;;;10.37;1.57;;;;;;;;;;5018446;28;20434;-73
2023/11/08 09:38:41;;;;;;;4.20;1.20;;;11.00;1.00;;;;;;5014500;28;20504;-73
2023/11/08 09:41:08;;;;;;;6.93;1.37;;;11.10;1.00;;;;;;5016569;28;20462;-73
2023/11/08 09:43:36;;;;;;;1.33;0.97;;;11.20;1.00;;;;;;5017776;28;20502;-73
2023/11/08 09:49:36;;;;;;;15.27;3.40;;;11.10;1.00;;;;;;5020746;28;21057;-81
2023/11/08 09:52:47;;;;;;;23.63;6.57;;;11.20;1.00;;;;;;5002901;28;20431;-81
2023/11/08 09:59:29;;;;;;;8.77;2.70;;;11.30;1.00;;;;;;5004334;28;20401;-81
2023/11/08 10:09:23;;;;;;;12.33;4.70;;;11.30;1.00;;;;;;5015413;28;20465;-78
2023/11/08 10:11:59;;;;;;;4.03;1.30;;;11.40;1.00;;;;;;4996860;28;20401;-78
2023/11/08 10:14:34;;;;;;;5.60;1.80;;;11.40;1.00;;;;;;5018114;28;20458;-80
2023/11/08 10:17:38;;;;;;;12.87;2.27;;;11.60;1.00;;;;;;5009134;28;20514;-80
2023/11/08 10:20:08;;;;;;;4.37;2.00;;;11.80;1.00;;;;;;5015380;28;20478;-73
2023/11/08 10:22:34;;;;;;;204.90;44.33;;;12.00;1.00;;;;;;5025069;28;20457;-73
2023/11/08 10:25:02;;;;;;;7.93;1.80;;;12.20;1.00;;;;;;5017477;28;20475;-73
2023/11/08 10:27:30;;;;;;;22.43;5.07;;;12.30;1.00;;;;;;5015390;28;20411;-74
2023/11/08 10:30:16;;;;;;;13.80;2.47;;;12.40;1.00;;;;;;5013462;28;20554;-74
2023/11/08 10:32:48;;;;;;;19.67;5.83;;;12.30;1.00;;;;;;5021589;28;20949;-79
2023/11/08 10:35:35;;;;;;;5.47;3.03;;;16.00;1.00;;;;;;5024699;28;20443;-84
2023/11/08 10:38:05;;;;;;;23.03;5.57;;;12.20;1.00;;;;;;5011724;28;20431;-78
2023/11/08 10:41:05;;;;;;;7.73;3.20;;;12.20;1.00;;;;;;5015713;28;20432;-83
2023/11/08 10:44:11;;;;;;;5.03;1.90;;;12.00;1.00;;;;;;5030549;28;20433;-81
2023/11/08 10:46:42;;;;;;;6.43;2.27;;;12.00;1.00;;;;;;5023913;28;20922;-73
2023/11/08 10:49:36;;;;;;;2.40;1.20;;;11.80;1.00;;;;;;5018255;28;20423;-81
2023/11/08 10:55:25;;;;;;;1.90;1.37;;;11.70;1.00;;;;;;5014355;28;20447;-81
2023/11/08 10:58:06;;;;;;;8.30;1.40;;;11.80;1.00;;;;;;5014370;28;20821;-79
2023/11/08 11:00:42;;;;;;;4.70;2.20;;;12.00;1.00;;;;;;5015265;28;20839;-79
2023/11/08 11:03:19;;;;;;;20.63;6.10;;;12.00;1.00;;;;;;5032537;28;20414;-79
2023/11/08 11:05:49;;;;;;;6.13;2.47;;;12.20;1.00;;;;;;5016337;28;20520;-72
2023/11/08 11:09:08;;;;;;;3.63;2.07;;;12.20;1.00;;;;;;5006235;28;21285;-77
2023/11/08 11:11:47;;;;;;;3.70;2.10;;;12.10;1.00;;;;;;5008906;28;20432;-75
2023/11/08 11:14:44;;;;;;;1.53;1.20;;;12.20;1.00;;;;;;5025676;28;20436;-76
2023/11/08 11:17:25;;;;;;;6.13;1.50;;;12.10;1.00;;;;;;5026584;28;20406;-76
2023/11/08 11:19:55;;;;;;;4.70;1.60;;;12.00;1.00;;;;;;5004450;28;20771;-72
2023/11/08 11:22:22;;;;;;;10.10;1.40;;;11.90;1.00;;;;;;5022268;28;20447;-73
2023/11/08 11:24:48;;;;;;;6.37;2.03;;;;;;;;;;5012216;28;20435;-71
2023/11/08 11:27:47;;;;;;;3.40;1.40;;;12.00;1.00;;;;;;5006605;28;20417;-75
2023/11/08 11:30:21;;;;;;;13.60;1.57;;;11.90;1.00;;;;;;5013371;28;20451;-74
2023/11/08 11:32:51;;;;;;;3.27;1.33;;;11.90;1.00;;;;;;5013159;28;20915;-74
2023/11/08 11:35:18;;;;;;;5.13;1.60;;;12.00;1.00;;;;;;4994752;28;20497;-73
2023/11/08 11:38:06;;;;;;;4.40;1.17;;;12.00;1.00;;;;;;5005452;28;20535;-74
2023/11/08 11:40:58;;;;;;;8.33;2.40;;;12.00;1.00;;;;;;5013841;28;20523;-73
2023/11/08 11:43:33;;;;;;;2.27;1.03;;;12.30;1.00;;;;;;5016095;28;20439;-73
2023/11/08 11:46:02;;;;;;;7.60;1.30;;;12.40;1.00;;;;;;5002796;28;20435;-74
2023/11/08 11:48:33;;;;;;;1.07;1.00;;;12.40;1.00;;;;;;5026207;28;20430;-71
2023/11/08 11:51:05;;;;;;;2.30;0.93;;;12.30;1.00;;;;;;5018543;28;20452;-74
2023/11/08 11:53:38;;;;;;;1.50;0.87;;;12.30;1.00;;;;;;5014060;28;20943;-74
2023/11/08 11:56:09;;;;;;;5.60;1.27;;;12.40;1.00;;;;;;5008603;28;20780;-73
2023/11/08 11:58:35;;;;;;;4.13;1.20;;;;;;;;;;5011021;28;20477;-74
2023/11/08 12:01:11;;;;;;;3.27;1.17;;;12.40;1.00;;;;;;5007805;28;20494;-74
2023/11/08 12:04:21;;;;;;;2.20;1.10;;;12.40;1.00;;;;;;5009031;28;20846;-81
2023/11/08 12:10:10;;;;;;;2.20;0.80;;;12.20;1.00;;;;;;5012810;28;20539;-80
2023/11/08 12:12:43;;;;;;;3.30;0.90;;;12.40;1.00;;;;;;5001134;28;20523;-80
2023/11/08 12:15:18;;;;;;;2.40;1.10;;;12.20;1.00;;;;;;5007132;28;20424;-80
2023/11/08 12:17:51;;;;;;;4.10;1.23;;;12.30;1.00;;;;;;5016926;28;20427;-72
2023/11/08 12:20:21;;;;;;;1.57;1.00;;;12.40;1.00;;;;;;5009059;28;20436;-72
2023/11/08 12:22:48;;;;;;;4.87;1.33;;;12.50;1.00;;;;;;5013198;28;20486;-73
2023/11/08 12:25:14;;;;;;;1.13;0.87;;;;;;;;;;5011935;28;20435;-73
2023/11/08 12:27:40;;;;;;;7.50;2.13;;;12.40;1.00;;;;;;5019188;28;20869;-73
2023/11/08 12:30:06;;;;;;;5.13;1.33;;;12.60;1.00;;;;;;5018366;28;20501;-73
2023/11/08 12:32:32;;;;;;;1.57;0.90;;;;;;;;;;5031619;28;20226;-73
2023/11/08 12:34:59;;;;;;;1.93;1.00;;;12.80;1.00;;;;;;5012681;28;20868;-72
2023/11/08 12:37:25;;;;;;;3.20;1.23;;;12.80;1.00;;;;;;5023363;28;20461;-72
2023/11/08 12:40:11;;;;;;;5.90;1.00;;;12.90;1.00;;;;;;5031424;28;20459;-73
2023/11/08 12:42:41;;;;;;;3.50;1.30;;;12.50;1.00;;;;;;5009195;28;21163;-72
2023/11/08 12:45:38;;;;;;;2.23;1.17;;;12.70;1.00;;;;;;5029711;28;20833;-72
2023/11/08 12:48:09;;;;;;;1.83;0.77;;;12.70;1.00;;;;;;4955404;28;20434;-73
2023/11/08 12:50:36;;;;;;;4.57;1.20;;;12.80;1.00;;;;;;4971211;28;20547;-73
2023/11/08 12:53:03;;;;;;;2.60;0.70;;;12.80;1.00;;;;;;4962429;28;20436;-73
2023/11/08 12:55:39;;;;;;;2.10;0.80;;;12.60;1.00;;;;;;4958304;28;20434;-72
2023/11/08 12:58:27;;;;;;;2.60;0.90;;;12.60;1.00;;;;;;4941571;28;20880;-72
2023/11/08 13:00:53;;;;;;;1.83;0.90;;;12.60;1.00;;;;;;4949682;28;20814;-72
2023/11/08 13:04:05;;;;;;;3.50;1.13;;;12.60;1.00;;;;;;4962453;28;20430;-79
2023/11/08 13:06:53;;;;;;;2.83;1.13;;;12.40;1.00;;;;;;4952530;29;20438;-80
2023/11/08 13:09:41;;;;;;;1.63;0.93;;;12.20;1.00;;;;;;4958274;28;20529;-79
2023/11/08 13:12:17;;;;;;;1.13;0.80;;;12.20;1.00;;;;;;4975239;28;20516;-80
2023/11/08 13:15:17;;;;;;;8.23;1.47;;;12.40;1.00;;;;;;4958763;28;20427;-80
2023/11/08 13:18:00;;;;;;;0.60;0.53;;;12.60;1.00;;;;;;4960369;28;20937;-79
2023/11/08 13:20:31;;;;;;;3.60;1.03;;;12.60;1.00;;;;;;4970184;28;20440;-73
2023/11/08 13:22:57;;;;;;;1.17;0.77;;;12.60;1.00;;;;;;4950856;28;20465;-73
2023/11/08 13:25:24;;;;;;;1.30;0.70;;;12.60;1.00;;;;;;5008842;28;20467;-72
2023/11/08 13:27:50;;;;;;;0.80;0.80;;;12.60;1.00;;;;;;5035768;28;20553;-73
2023/11/08 13:30:23;;;;;;;3.10;1.07;;;12.70;1.00;;;;;;5016711;28;20943;-72
2023/11/08 13:32:52;;;;;;;0.70;0.57;;;12.80;1.00;;;;;;5024880;28;20466;-73
2023/11/08 13:35:18;;;;;;;3.53;1.10;;;12.80;1.00;;;;;;4999356;28;20476;-73
2023/11/08 13:37:44;;;;;;;2.20;0.90;;;12.60;1.00;;;;;;5027114;28;20463;-73
2023/11/08 13:40:10;;;;;;;2.13;0.87;;;12.60;1.00;;;;;;5019623;28;20514;-73
2023/11/08 13:42:38;;;;;;;2.40;0.97;;;12.60;1.00;;;;;;5018395;28;20472;-73
2023/11/08 13:45:05;;;;;;;5.87;1.40;;;12.60;1.00;;;;;;5020095;28;20196;-73
2023/11/08 13:47:37;;;;;;;1.50;0.80;;;12.70;1.00;;;;;;5009244;28;20418;-73
2023/11/08 13:50:18;;;;;;;7.83;1.10;;;12.50;1.00;;;;;;5014343;28;20811;-73
2023/11/08 13:52:47;;;;;;;4.23;1.30;;;12.50;1.00;;;;;;5020209;28;20945;-73
2023/11/08 13:55:14;;;;;;;10.33;0.90;;;12.60;1.00;;;;;;5021829;28;20568;-73
2023/11/08 13:57:40;;;;;;;0.80;0.80;;;12.50;1.00;;;;;;5020082;28;20454;-73
2023/11/08 14:00:17;;;;;;;4.33;0.80;;;12.60;1.00;;;;;;5022706;28;20775;-73
2023/11/08 14:02:48;;;;;;;7.50;1.10;;;12.50;1.00;;;;;;5023855;28;20473;-73
2023/11/08 14:05:15;;;;;;;4.77;1.10;;;12.60;1.00;;;;;;5031918;28;20433;-73
2023/11/08 14:07:41;;;;;;;0.90;0.90;;;12.50;1.00;;;;;;5008941;28;20519;-73
2023/11/08 14:10:07;;;;;;;1.63;0.97;;;12.50;1.00;;;;;;5022409;28;20616;-73
2023/11/08 14:12:35;;;;;;;1.70;0.90;;;12.40;1.00;;;;;;5014318;28;20422;-73
2023/11/08 14:15:01;;;;;;;3.17;0.90;;;12.50;1.00;;;;;;5013891;28;20485;-73
2023/11/08 14:17:27;;;;;;;4.63;1.67;;;12.40;1.00;;;;;;5012653;28;20439;-73
2023/11/08 14:20:41;;;;;;;3.57;1.03;;;12.30;1.00;;;;;;5014019;28;20416;-80
2023/11/08 14:23:35;;;;;;;2.50;1.13;;;12.40;1.00;;;;;;5014777;28;20493;-80
2023/11/08 14:32:53;;;;;;;4.40;1.07;;;12.40;1.00;;;;;;5019698;28;20783;-82
2023/11/08 14:39:04;;;;;;;7.40;1.00;;;12.40;1.00;;;;;;5027902;28;20462;-79
2023/11/08 14:41:29;;;;;;;0.87;0.87;;;13.40;1.00;;;;;;5011973;28;20443;-79
2023/11/08 14:57:47;;;;;;;2.20;1.23;;;12.10;1.00;;;;;;5006501;28;20474;-79
2023/11/08 15:00:23;;;;;;;0.70;0.70;;;12.10;1.00;;;;;;5013545;28;20440;-79
2023/11/08 15:06:11;;;;;;;4.43;1.00;;;11.80;1.00;;;;;;5014142;28;20410;-73
2023/11/08 15:08:38;;;;;;;9.30;0.93;;;11.70;1.00;;;;;;5023550;28;20422;-73
2023/11/08 15:11:04;;;;;;;1.40;0.93;;;11.60;1.00;;;;;;5011449;28;20460;-73
2023/11/08 15:13:48;;;;;;;1.30;1.20;;;11.50;1.00;;;;;;5013261;28;20442;-75
2023/11/08 15:16:24;;;;;;;1.13;1.03;;;11.40;1.00;;;;;;5018831;28;20423;-73
2023/11/08 15:18:51;;;;;;;0.90;0.90;;;11.30;1.00;;;;;;5013910;28;20415;-74
2023/11/08 15:22:11;;;;;;;1.83;1.10;;;11.30;1.00;;;;;;5005627;28;20554;-80
2023/11/08 15:28:29;;;;;;;1.50;0.80;;;11.10;1.00;;;;;;5003255;28;20772;-82
2023/11/08 15:34:26;;;;;;;6.90;1.80;;;11.00;1.00;;;;;;5001757;28;20445;-81
2023/11/08 15:36:52;;;;;;;2.10;1.23;;;11.00;1.00;;;;;;5031975;28;20495;-73
2023/11/08 15:39:23;;;;;;;4.63;1.73;;;10.90;1.00;;;;;;5012088;28;20481;-73
2023/11/08 15:41:53;;;;;;;1.67;1.20;;;10.80;1.00;;;;;;5011108;28;20633;-73
2023/11/08 15:44:23;;;;;;;1.53;0.97;;;10.80;1.00;;;;;;5033665;28;20426;-73
2023/11/08 15:46:49;;;;;;;2.63;1.40;;;;;;;;;;5014427;28;20415;-73
2023/11/08 15:49:16;;;;;;;1.93;1.23;;;10.70;1.00;;;;;;5009680;28;20454;-73
2023/11/08 15:51:42;;;;;;;2.30;1.50;;;10.60;1.00;;;;;;5015033;28;20422;-82
2023/11/08 15:54:18;;;;;;;2.80;1.10;;;10.60;1.00;;;;;;5021856;28;20431;-81
2023/11/08 16:00:07;;;;;;;2.30;1.40;;;10.60;1.00;;;;;;5023526;28;20465;-82
2023/11/08 16:02:35;;;;;;;4.73;1.17;;;10.40;1.00;;;;;;5018559;28;20439;-80
2023/11/08 16:05:11;;;;;;;1.40;0.97;;;10.40;1.00;;;;;;5019527;28;20423;-74
2023/11/08 16:07:41;;;;;;;3.67;1.10;;;10.30;1.00;;;;;;5021944;28;20435;-73
2023/11/08 16:10:08;;;;;;;1.63;1.07;;;10.30;1.00;;;;;;5014650;28;20519;-74
2023/11/08 16:12:34;;;;;;;1.17;1.10;;;10.30;1.00;;;;;;5017250;28;20465;-74
2023/11/08 16:15:11;;;;;;;7.80;1.43;;;10.30;1.00;;;;;;5024323;28;20416;-74
2023/11/08 16:17:37;;;;;;;9.03;1.80;;;;;;;;;;5016780;28;20443;-74
2023/11/08 16:20:49;;;;;;;5.93;1.60;;;10.30;1.00;;;;;;5013236;28;20446;-82
2023/11/08 16:23:15;;;;;;;2.50;1.00;;;10.30;1.00;;;;;;5017134;28;20533;-82
2023/11/08 16:25:47;;;;;;;1.40;1.13;;;10.30;1.00;;;;;;5018545;28;20471;-82
2023/11/08 16:28:23;;;;;;;2.77;1.10;;;10.30;1.00;;;;;;5012834;28;20181;-82
2023/11/08 16:30:49;;;;;;;1.10;0.93;;;10.20;1.00;;;;;;5021152;28;20486;-82
2023/11/08 16:36:37;;;;;;;1.30;1.17;;;10.30;1.00;;;;;;5006664;28;20239;-73
2023/11/08 16:39:08;;;;;;;5.33;1.30;;;10.30;1.00;;;;;;5016970;28;20431;-73
2023/11/08 16:41:38;;;;;;;1.50;1.23;;;10.30;1.00;;;;;;5009633;28;20216;-73
2023/11/08 16:44:04;;;;;;;7.27;1.50;;;10.30;1.00;;;;;;5021340;28;20449;-73
2023/11/08 16:46:30;;;;;;;3.63;1.63;;;;;;;;;;5022914;28;20404;-73
2023/11/08 16:48:56;;;;;;;4.47;2.00;;;10.20;1.00;;;;;;5021637;28;20220;-73
2023/11/08 16:51:23;;;;;;;3.67;1.30;;;10.30;1.00;;;;;;5026556;28;20455;-73
2023/11/08 16:53:50;;;;;;;1.90;1.50;;;10.20;1.00;;;;;;5021969;28;20208;-73
2023/11/08 16:56:16;;;;;;;1.57;1.20;;;10.20;1.00;;;;;;5021166;28;20423;-73
2023/11/08 16:58:42;;;;;;;1.90;1.30;;;;;;;;;;5024819;28;20424;-73
2023/11/08 17:01:09;;;;;;;3.63;1.80;;;10.20;1.00;;;;;;5017408;28;20490;-73
2023/11/08 17:03:37;;;;;;;1.30;1.20;;;10.20;1.00;;;;;;5019260;28;20443;-74
2023/11/08 17:06:08;;;;;;;2.83;1.60;;;10.20;1.00;;;;;;5025880;28;20461;-74